KLLJ

Challis Airport

Challis, Idaho, USA
METAR KLLJ 180658Z AUTO 32012KT 1 1/2SM -SN BR BKN029 BKN042 OVC050 01/M01 A2950 RMK AO2 P0000 T00111006
Observed Flight Rules
Feb-18 @ 06:58 UTC (19 minutes ago) Instrument Flight Rules
Wind Visibility Clouds Conditions
320° at 12 knots 1 1/2 miles
  • Broken at 2,900' AGL
  • Broken at 4,200' AGL
  • Overcast at 5,000' AGL
  • Light Snow
  • Mist
Temperatures Readings Precipitation
Current 1°C / 34°F
Dewpoint -1°C / 30°F
Humidity 87%
Altimeter 29.5" Hg
Pressure 999 hPa
Elevation 1536
Current Rain 0.005
METAR KLLJ 180658Z AUTO 32012KT 1 1/2SM -SN BR BKN029 BKN042 OVC050 01/M01 A2950 RMK AO2 P0000 T00111006
Observed Flight Rules
Feb-18 @ 06:58 UTC
(19 minutes ago)
IFR
Wind Visibility
320° at 12 knots 1 1/2 miles
Clouds
  • Broken at 2,900' AGL
  • Broken at 4,200' AGL
  • Overcast at 5,000' AGL
Conditions
  • Light Snow
  • Mist
Temperature Dewpoint
1°C / 34°F -1°C / 30°F
Humidity Altimeter Pressure
87% 29.5" Hg 999 hPa
Current Rain
0.005